Time;durP1;ratioP1;P1;durP2;ratioP2;P2;SDS_P1;SDS_P2;PMS_P1;PMS_P2;Temp;Humidity;BMP_temperature;BMP_pressure;BME280_temperature;BME280_humidity;BME280_pressure;Samples;Min_cycle;Max_cycle;Signal;HPM_P1;HPM_P2
2022/07/28 05:19:26;;;;;;;15.10;14.50;;;20.80;19.90;;;;;;6235254;22;20523;-72
2022/07/28 05:40:04;;;;;;;16.73;16.03;;;20.80;20.20;;;;;;6200596;22;20437;-69
2022/07/28 07:13:07;;;;;;;18.80;17.70;;;21.20;23.50;;;;;;6216429;22;20444;-74
2022/07/28 07:31:05;;;;;;;18.40;17.40;;;21.70;23.30;;;;;;6221383;22;20457;-71
2022/07/28 07:33:34;;;;;;;17.90;17.00;;;21.80;23.30;;;;;;6210882;22;20805;-68
2022/07/28 07:41:11;;;;;;;19.80;18.90;;;21.50;24.20;;;;;;6205893;22;20460;-68
2022/07/28 07:48:48;;;;;;;20.70;19.80;;;21.90;23.90;;;;;;6238703;22;20453;-71
2022/07/28 07:51:14;;;;;;;19.33;18.33;;;22.00;23.70;;;;;;6217892;23;20715;-71
2022/07/28 07:53:40;;;;;;;19.07;17.93;;;22.00;23.10;;;;;;6218324;23;20378;-70
2022/07/28 07:56:06;;;;;;;19.43;18.33;;;22.00;23.90;;;;;;6218171;23;20700;-69
2022/07/28 08:01:07;;;;;;;20.43;19.07;;;22.10;23.80;;;;;;6193318;22;20443;-67
2022/07/28 08:03:33;;;;;;;20.27;19.10;;;21.80;24.20;;;;;;6218497;23;20383;-67
2022/07/28 08:05:58;;;;;;;21.27;20.07;;;22.00;24.00;;;;;;6245124;23;20154;-67
2022/07/28 08:08:24;;;;;;;20.87;19.80;;;22.10;23.70;;;;;;6217593;23;20581;-67
2022/07/28 08:10:50;;;;;;;21.17;20.07;;;22.30;23.80;;;;;;6217894;23;20152;-67
2022/07/28 08:13:19;;;;;;;22.20;21.10;;;22.50;23.40;;;;;;6218041;23;20463;-67
2022/07/28 08:15:45;;;;;;;21.93;20.93;;;22.50;23.40;;;;;;6217983;23;20487;-67
2022/07/28 08:18:20;;;;;;;22.50;20.73;;;22.50;23.40;;;;;;6218340;23;20387;-67
2022/07/28 08:20:49;;;;;;;22.10;20.80;;;22.40;23.80;;;;;;6217766;23;20386;-67
2022/07/28 08:23:15;;;;;;;21.73;20.37;;;22.40;23.80;;;;;;6218337;23;20753;-68
2022/07/28 08:25:41;;;;;;;21.10;20.10;;;22.50;23.80;;;;;;6217950;23;20401;-67
2022/07/28 08:28:12;;;;;;;22.20;20.70;;;22.50;24.40;;;;;;6217513;23;20624;-67
2022/07/28 08:30:38;;;;;;;21.47;20.27;;;22.50;23.90;;;;;;6217438;23;20460;-67
2022/07/28 08:33:04;;;;;;;18.73;17.77;;;22.80;23.60;;;;;;6217983;23;20387;-67
2022/07/28 08:35:30;;;;;;;20.37;19.47;;;22.80;23.60;;;;;;6218010;23;20151;-68
2022/07/28 08:37:56;;;;;;;21.90;20.90;;;22.80;23.60;;;;;;6217844;23;20374;-67
2022/07/28 08:40:22;;;;;;;22.60;21.30;;;22.70;23.50;;;;;;6217740;23;20155;-67
2022/07/28 08:43:06;;;;;;;20.83;19.83;;;23.00;23.50;;;;;;6244710;23;20152;-67
2022/07/28 08:45:33;;;;;;;22.47;20.87;;;23.00;23.70;;;;;;6243216;23;20374;-67
2022/07/28 08:48:00;;;;;;;23.43;22.27;;;23.10;23.60;;;;;;6217619;23;20456;-67
2022/07/28 08:50:27;;;;;;;20.77;19.87;;;23.00;23.70;;;;;;6242940;23;20382;-67
2022/07/28 08:53:44;;;;;;;21.30;20.30;;;23.10;23.80;;;;;;6217726;23;20382;-67
2022/07/28 09:00:51;;;;;;;19.97;18.87;;;23.50;22.70;;;;;;6238723;22;20786;-71
2022/07/28 09:03:17;;;;;;;20.80;19.90;;;23.50;23.10;;;;;;6217695;23;20383;-71
2022/07/28 09:05:43;;;;;;;19.87;18.97;;;23.50;23.10;;;;;;6216959;23;20148;-71
2022/07/28 09:08:11;;;;;;;20.47;19.57;;;23.60;23.40;;;;;;6216044;23;20218;-67
2022/07/28 09:10:37;;;;;;;20.53;19.43;;;23.70;23.30;;;;;;6217097;23;20382;-67
2022/07/28 09:13:03;;;;;;;20.77;19.67;;;23.80;22.90;;;;;;6217054;23;20493;-68
2022/07/28 09:15:29;;;;;;;21.83;20.80;;;23.90;22.60;;;;;;6244009;23;20378;-67
2022/07/28 09:17:54;;;;;;;21.20;19.97;;;23.90;22.80;;;;;;6217322;23;20155;-67
2022/07/28 09:20:23;;;;;;;22.97;21.77;;;23.90;22.80;;;;;;6246596;23;20158;-67
2022/07/28 09:23:00;;;;;;;24.20;22.83;;;24.00;22.60;;;;;;6245369;23;20158;-67
2022/07/28 09:25:27;;;;;;;22.90;21.70;;;23.90;22.80;;;;;;6219494;23;20760;-67
2022/07/28 09:27:54;;;;;;;22.90;21.80;;;23.90;22.90;;;;;;6219037;23;20488;-67
2022/07/28 09:30:52;;;;;;;22.70;21.60;;;24.10;22.60;;;;;;6218886;23;20384;-67
2022/07/28 09:33:18;;;;;;;22.20;21.00;;;24.30;21.80;;;;;;6219272;23;20386;-67
2022/07/28 09:35:52;;;;;;;22.03;20.80;;;24.40;21.90;;;;;;6244541;23;20932;-67
2022/07/28 09:38:20;;;;;;;21.30;20.13;;;24.50;22.10;;;;;;6219243;23;20374;-67
2022/07/28 09:40:56;;;;;;;22.10;21.00;;;24.50;21.90;;;;;;6218890;23;20380;-67
2022/07/28 09:44:03;;;;;;;22.17;20.87;;;24.50;21.90;;;;;;6244425;23;20393;-67
2022/07/28 09:46:32;;;;;;;21.17;20.13;;;24.90;21.20;;;;;;6218846;23;20433;-67
2022/07/28 09:48:58;;;;;;;21.87;20.73;;;25.10;20.80;;;;;;6218995;23;20854;-67
2022/07/28 09:51:29;;;;;;;20.40;19.37;;;25.10;20.80;;;;;;6218659;23;20382;-67
2022/07/28 09:54:10;;;;;;;20.33;19.33;;;25.10;20.90;;;;;;6218964;23;20371;-67
2022/07/28 09:56:43;;;;;;;20.07;19.07;;;25.20;20.70;;;;;;6219077;23;20760;-67
2022/07/28 09:59:10;;;;;;;20.57;19.27;;;25.20;20.90;;;;;;6219036;23;20410;-67
2022/07/28 10:01:58;;;;;;;19.43;18.63;;;25.10;20.50;;;;;;6218689;23;20382;-67
2022/07/28 10:04:38;;;;;;;20.70;19.80;;;25.30;20.10;;;;;;6218957;23;20851;-67
2022/07/28 10:07:05;;;;;;;20.23;19.30;;;25.60;19.50;;;;;;6218788;23;20794;-67
2022/07/28 10:09:32;;;;;;;20.63;19.53;;;25.70;19.60;;;;;;6244281;23;20387;-67
2022/07/28 10:12:17;;;;;;;20.80;19.70;;;25.80;19.60;;;;;;6219000;23;20873;-67
2022/07/28 10:14:45;;;;;;;21.80;20.40;;;25.80;19.60;;;;;;6219030;23;20414;-68
2022/07/28 10:17:21;;;;;;;20.97;19.83;;;25.80;19.20;;;;;;6218782;23;20457;-67
2022/07/28 10:19:46;;;;;;;20.37;19.10;;;25.90;18.80;;;;;;6218765;23;20366;-67
2022/07/28 10:22:14;;;;;;;20.50;19.70;;;26.00;18.90;;;;;;6218419;23;20469;-67
2022/07/28 10:24:40;;;;;;;20.90;19.70;;;26.20;18.90;;;;;;6218705;23;20234;-67
2022/07/28 10:27:07;;;;;;;19.80;18.90;;;26.60;17.90;;;;;;6218522;23;20762;-67
2022/07/28 10:29:33;;;;;;;19.80;18.80;;;26.60;17.50;;;;;;6245642;23;20354;-67
2022/07/28 10:32:04;;;;;;;20.50;18.83;;;26.70;17.40;;;;;;6218347;23;20405;-68
2022/07/28 10:34:36;;;;;;;20.50;19.40;;;26.80;17.40;;;;;;6218669;23;20879;-68
2022/07/28 10:37:04;;;;;;;19.80;19.00;;;26.90;17.40;;;;;;6218568;23;20370;-68
2022/07/28 10:39:41;;;;;;;20.93;19.63;;;26.90;17.40;;;;;;6218790;23;20486;-67
2022/07/28 10:42:11;;;;;;;19.47;18.67;;;26.80;17.40;;;;;;6215480;23;20739;-67
2022/07/28 10:44:38;;;;;;;19.80;18.90;;;27.10;17.00;;;;;;6217668;23;20413;-68
2022/07/28 10:47:11;;;;;;;21.10;19.80;;;27.00;17.50;;;;;;6217441;23;20957;-68
2022/07/28 10:49:40;;;;;;;19.83;18.83;;;27.00;17.50;;;;;;6217079;23;20468;-68
2022/07/28 10:52:07;;;;;;;19.07;18.23;;;26.90;17.40;;;;;;6217370;23;20379;-67
2022/07/28 10:54:41;;;;;;;18.73;17.93;;;26.90;17.40;;;;;;6217724;23;20446;-68
2022/07/28 10:57:11;;;;;;;19.20;18.17;;;26.80;17.40;;;;;;6216831;23;20375;-68
2022/07/28 11:00:07;;;;;;;19.40;18.40;;;26.80;17.40;;;;;;6217321;23;20501;-68
2022/07/28 11:02:49;;;;;;;20.43;19.37;;;26.80;17.40;;;;;;6242968;23;20378;-67
2022/07/28 11:05:28;;;;;;;19.40;18.50;;;26.80;17.40;;;;;;6242219;23;20713;-67
2022/07/28 11:07:54;;;;;;;19.60;18.50;;;26.90;17.20;;;;;;6241842;23;20694;-67
2022/07/28 11:10:21;;;;;;;18.77;17.70;;;26.80;17.40;;;;;;6217159;23;20863;-67
2022/07/28 11:12:49;;;;;;;18.60;17.80;;;26.90;17.00;;;;;;6216975;23;20737;-67
2022/07/28 11:15:31;;;;;;;18.30;17.30;;;26.90;16.70;;;;;;6217383;23;20449;-67
2022/07/28 11:18:02;;;;;;;19.37;18.47;;;26.90;16.60;;;;;;6242101;23;20385;-67
2022/07/28 11:20:59;;;;;;;19.97;18.87;;;27.40;16.00;;;;;;6216847;23;20377;-67
2022/07/28 11:23:43;;;;;;;18.20;17.50;;;27.50;15.70;;;;;;6242616;23;20371;-67
2022/07/28 11:26:21;;;;;;;19.03;18.10;;;27.30;16.40;;;;;;6216210;23;20439;-68
2022/07/28 11:29:10;;;;;;;19.73;18.50;;;27.10;16.10;;;;;;6242202;23;20382;-68
2022/07/28 11:31:47;;;;;;;18.83;17.83;;;27.00;16.60;;;;;;6217099;23;20382;-68
2022/07/28 11:34:19;;;;;;;18.87;17.73;;;26.90;17.00;;;;;;6242261;23;20382;-68
2022/07/28 11:37:09;;;;;;;17.90;16.73;;;26.90;16.60;;;;;;6217815;23;20377;-68
2022/07/28 11:39:39;;;;;;;18.90;17.97;;;26.80;16.60;;;;;;6216747;23;20370;-68
2022/07/28 11:42:23;;;;;;;20.30;19.07;;;26.80;17.00;;;;;;6216344;23;20382;-68
2022/07/28 11:44:49;;;;;;;19.83;18.73;;;26.70;16.70;;;;;;6242465;23;20443;-68
2022/07/28 11:47:18;;;;;;;18.33;17.40;;;26.70;16.50;;;;;;6243234;23;20417;-67
2022/07/28 11:50:04;;;;;;;18.77;17.77;;;27.10;15.40;;;;;;6217252;23;20375;-68
2022/07/28 11:52:30;;;;;;;18.60;17.70;;;27.20;14.90;;;;;;6217628;23;20456;-67
2022/07/28 11:54:57;;;;;;;23.13;21.50;;;27.30;14.40;;;;;;6217611;23;20378;-67
2022/07/28 11:57:24;;;;;;;17.67;16.87;;;27.70;13.60;;;;;;6217320;23;20151;-68
2022/07/28 11:59:53;;;;;;;18.57;17.77;;;28.00;14.10;;;;;;6217559;23;20413;-67
2022/07/28 12:02:21;;;;;;;18.90;17.93;;;28.00;14.20;;;;;;6217562;23;20393;-67
2022/07/28 12:04:55;;;;;;;18.60;17.90;;;27.70;14.50;;;;;;6217360;23;20386;-67
2022/07/28 12:07:31;;;;;;;18.93;17.97;;;27.80;14.50;;;;;;6217657;23;20429;-67
2022/07/28 12:09:57;;;;;;;19.00;17.97;;;27.50;14.50;;;;;;6217433;23;20851;-67
2022/07/28 12:12:22;;;;;;;18.77;17.77;;;27.40;15.10;;;;;;6217392;23;20377;-68
2022/07/28 12:14:49;;;;;;;20.90;19.60;;;27.40;14.50;;;;;;6217482;23;20651;-67
2022/07/28 12:17:14;;;;;;;17.97;17.23;;;27.50;13.80;;;;;;6217892;23;20205;-67
2022/07/28 12:19:40;;;;;;;18.03;17.20;;;27.50;13.10;;;;;;6217851;23;20379;-67
2022/07/28 12:22:10;;;;;;;18.03;17.33;;;27.40;14.10;;;;;;6217658;23;20390;-67
2022/07/28 12:24:36;;;;;;;19.00;18.07;;;27.40;14.60;;;;;;6217885;23;20151;-67
2022/07/28 12:27:02;;;;;;;19.27;18.27;;;27.20;15.00;;;;;;6217908;23;20436;-68
2022/07/28 12:29:32;;;;;;;18.00;17.20;;;27.20;15.00;;;;;;6217849;23;20675;-67
2022/07/28 12:32:01;;;;;;;18.07;17.20;;;27.40;14.30;;;;;;6217712;23;20394;-67
2022/07/28 12:34:28;;;;;;;18.00;17.20;;;27.50;14.10;;;;;;6218443;23;20878;-67
2022/07/28 12:37:00;;;;;;;17.30;16.50;;;27.60;12.40;;;;;;6219305;23;20390;-67
2022/07/28 12:39:29;;;;;;;18.83;17.73;;;27.90;11.90;;;;;;6219859;23;20383;-67
2022/07/28 12:42:03;;;;;;;16.97;16.27;;;27.90;11.70;;;;;;6219399;23;20389;-67
2022/07/28 12:44:40;;;;;;;17.10;16.10;;;27.90;11.10;;;;;;6219850;23;20382;-67
2022/07/28 12:47:08;;;;;;;16.80;16.20;;;27.90;10.60;;;;;;6219429;23;20497;-67
2022/07/28 12:49:35;;;;;;;17.10;16.50;;;27.70;11.00;;;;;;6219464;23;20847;-67
2022/07/28 12:52:21;;;;;;;18.20;17.40;;;27.50;12.00;;;;;;6219200;23;20393;-67
2022/07/28 12:54:47;;;;;;;18.10;17.23;;;27.70;12.40;;;;;;6246535;23;20397;-67
2022/07/28 12:57:14;;;;;;;18.90;17.90;;;27.70;12.50;;;;;;6219551;23;20444;-67
2022/07/28 12:59:43;;;;;;;17.77;16.97;;;27.70;12.20;;;;;;6219464;23;20713;-67
2022/07/28 13:02:08;;;;;;;16.60;15.90;;;27.60;12.40;;;;;;6246115;23;20454;-67
2022/07/28 13:04:48;;;;;;;18.20;17.30;;;27.50;12.70;;;;;;6219772;23;20386;-68
2022/07/28 13:07:20;;;;;;;19.87;18.67;;;27.40;12.30;;;;;;6219314;23;20205;-68
2022/07/28 13:10:05;;;;;;;18.57;17.73;;;27.50;11.90;;;;;;6244677;23;20401;-67
2022/07/28 13:12:31;;;;;;;18.80;17.70;;;27.80;11.30;;;;;;6219559;23;20382;-67
2022/07/28 13:14:59;;;;;;;18.03;17.30;;;27.80;11.40;;;;;;6219215;23;20512;-68
2022/07/28 13:17:46;;;;;;;18.40;17.13;;;28.00;10.90;;;;;;6244734;23;20478;-69
2022/07/28 13:20:13;;;;;;;17.57;16.77;;;28.00;11.00;;;;;;6218986;23;20390;-69
2022/07/28 13:22:39;;;;;;;17.27;16.53;;;27.80;10.90;;;;;;6219372;23;20440;-69
2022/07/28 13:25:06;;;;;;;17.67;16.70;;;27.70;11.40;;;;;;6219450;23;20395;-69
2022/07/28 13:27:33;;;;;;;17.20;16.30;;;27.70;11.20;;;;;;6219070;23;20468;-68
2022/07/28 13:29:59;;;;;;;17.60;16.70;;;27.60;12.20;;;;;;6218714;23;20375;-69
2022/07/28 13:32:25;;;;;;;17.43;16.63;;;27.60;12.10;;;;;;6218969;23;20387;-69
2022/07/28 13:34:51;;;;;;;16.90;16.13;;;27.60;12.20;;;;;;6246328;23;20377;-69
2022/07/28 13:37:17;;;;;;;16.53;15.83;;;27.50;13.00;;;;;;6219504;23;20469;-69
2022/07/28 13:39:43;;;;;;;17.97;17.10;;;27.60;12.20;;;;;;6219306;23;20204;-68
2022/07/28 13:42:09;;;;;;;16.60;15.97;;;27.80;11.70;;;;;;6218706;23;20390;-68
2022/07/28 13:44:36;;;;;;;16.83;16.13;;;27.80;11.70;;;;;;6219189;23;20187;-68
2022/07/28 13:47:05;;;;;;;16.43;15.73;;;27.90;11.60;;;;;;6219329;23;20187;-69
2022/07/28 13:49:33;;;;;;;17.27;16.10;;;28.10;11.00;;;;;;6219025;23;20470;-69
2022/07/28 13:52:03;;;;;;;16.10;15.20;;;28.10;11.00;;;;;;6219196;23;20932;-69
2022/07/28 13:54:29;;;;;;;17.23;16.43;;;27.90;11.60;;;;;;6219009;23;20374;-68
2022/07/28 13:56:55;;;;;;;17.13;16.33;;;28.00;11.10;;;;;;6218846;23;20456;-69
2022/07/28 13:59:22;;;;;;;17.50;16.50;;;28.00;11.00;;;;;;6218166;23;20592;-69
2022/07/28 14:01:48;;;;;;;17.00;16.20;;;28.00;11.10;;;;;;6218577;23;20436;-69
2022/07/28 14:04:14;;;;;;;16.00;15.10;;;28.10;10.80;;;;;;6245685;23;20469;-68
2022/07/28 14:06:40;;;;;;;17.17;16.33;;;28.00;11.00;;;;;;6245573;23;20418;-68
2022/07/28 14:09:06;;;;;;;16.47;15.53;;;28.00;10.70;;;;;;6218729;23;20162;-68
2022/07/28 14:11:33;;;;;;;16.50;15.80;;;28.00;10.70;;;;;;6218920;23;20242;-68
2022/07/28 14:14:07;;;;;;;16.60;15.70;;;27.90;10.60;;;;;;6218710;23;20374;-68
2022/07/28 14:16:34;;;;;;;17.03;16.07;;;28.00;10.70;;;;;;6218883;23;20876;-67
2022/07/28 14:19:02;;;;;;;17.40;16.60;;;28.10;10.70;;;;;;6218559;23;20385;-67
2022/07/28 14:21:30;;;;;;;17.03;15.83;;;28.00;9.90;;;;;;6218315;23;20398;-67
2022/07/28 14:23:56;;;;;;;17.23;16.57;;;28.00;10.00;;;;;;6245323;23;20863;-67
2022/07/28 14:26:27;;;;;;;18.23;17.53;;;28.20;9.80;;;;;;6218705;23;20429;-67
2022/07/28 14:28:53;;;;;;;17.90;16.87;;;28.00;10.20;;;;;;6218639;23;20522;-67
2022/07/28 14:31:19;;;;;;;17.70;16.90;;;28.20;10.00;;;;;;6218801;23;20382;-67
2022/07/28 14:33:48;;;;;;;17.30;16.50;;;28.20;9.90;;;;;;6244143;23;20205;-66
2022/07/28 14:36:16;;;;;;;17.37;16.07;;;28.30;9.60;;;;;;6219153;23;20177;-67
2022/07/28 14:38:42;;;;;;;18.47;17.17;;;28.40;9.40;;;;;;6242292;23;20397;-67
2022/07/28 14:41:14;;;;;;;16.50;15.90;;;28.20;10.00;;;;;;6218026;23;20425;-67
2022/07/28 14:43:40;;;;;;;17.00;15.83;;;28.30;9.60;;;;;;6219295;23;20469;-67
2022/07/28 14:46:06;;;;;;;16.43;15.63;;;28.30;9.60;;;;;;6218868;23;20418;-67
2022/07/28 14:48:38;;;;;;;16.30;15.53;;;28.30;9.90;;;;;;6219072;23;20597;-67
2022/07/28 14:51:09;;;;;;;16.23;15.37;;;28.20;9.80;;;;;;6218742;23;20477;-67
2022/07/28 14:53:35;;;;;;;16.40;15.40;;;28.40;9.20;;;;;;6219042;23;20835;-67
2022/07/28 14:56:01;;;;;;;15.63;14.93;;;28.30;9.30;;;;;;6218972;23;20387;-67
2022/07/28 14:58:27;;;;;;;15.73;14.60;;;28.20;9.20;;;;;;6246119;23;20222;-67
2022/07/28 15:00:53;;;;;;;17.13;16.00;;;28.10;9.10;;;;;;6218654;23;20444;-67
2022/07/28 15:03:19;;;;;;;16.10;15.33;;;28.10;9.10;;;;;;6219236;23;20543;-67
2022/07/28 15:05:45;;;;;;;16.00;15.30;;;28.00;8.80;;;;;;6245828;23;20556;-67
2022/07/28 15:08:12;;;;;;;16.90;15.80;;;28.00;9.00;;;;;;6218045;23;20952;-70
2022/07/28 15:10:38;;;;;;;15.73;15.03;;;28.00;9.10;;;;;;6218003;23;20378;-70
2022/07/28 15:13:03;;;;;;;17.13;16.33;;;28.20;9.00;;;;;;6218396;23;20436;-70
2022/07/28 15:15:29;;;;;;;17.97;16.80;;;28.20;7.90;;;;;;6218325;23;20839;-70
2022/07/28 15:17:56;;;;;;;16.40;15.70;;;28.10;7.80;;;;;;6245096;23;20139;-70
2022/07/28 15:20:22;;;;;;;16.37;15.77;;;27.90;8.90;;;;;;6218395;23;20246;-70
2022/07/28 15:22:48;;;;;;;17.27;15.60;;;27.80;8.40;;;;;;6218293;23;20386;-71
2022/07/28 15:25:14;;;;;;;16.33;15.50;;;27.80;8.40;;;;;;6218313;23;20973;-70
2022/07/28 15:27:39;;;;;;;15.30;14.53;;;27.80;9.10;;;;;;6218353;23;20207;-70
2022/07/28 15:30:06;;;;;;;15.80;15.00;;;27.90;9.60;;;;;;6217907;23;20393;-71
2022/07/28 15:32:32;;;;;;;15.27;14.60;;;28.00;9.70;;;;;;6217979;23;20155;-70
2022/07/28 15:34:58;;;;;;;15.17;14.47;;;28.10;9.50;;;;;;6218818;23;20757;-71
2022/07/28 15:37:25;;;;;;;15.80;15.10;;;28.30;9.30;;;;;;6219522;23;20151;-71
2022/07/28 15:39:51;;;;;;;16.00;15.30;;;28.00;9.80;;;;;;6218107;23;20390;-71
2022/07/28 15:42:17;;;;;;;16.07;15.30;;;28.20;9.20;;;;;;6218273;23;20753;-71
2022/07/28 15:44:42;;;;;;;16.00;15.00;;;28.30;9.30;;;;;;6217902;23;20188;-70
2022/07/28 15:47:08;;;;;;;15.20;14.40;;;28.10;9.10;;;;;;6217004;23;20179;-71
2022/07/28 15:49:34;;;;;;;20.50;18.73;;;28.10;9.20;;;;;;6217992;23;20147;-72
2022/07/28 15:51:59;;;;;;;143.97;71.03;;;28.20;9.30;;;;;;6244373;23;20147;-72
2022/07/28 15:54:25;;;;;;;205.67;99.53;;;28.00;9.40;;;;;;6217757;23;20159;-72
2022/07/28 15:56:51;;;;;;;19.53;18.20;;;27.80;9.70;;;;;;6217909;23;20155;-71
2022/07/28 15:59:16;;;;;;;20.23;18.80;;;27.90;9.00;;;;;;6217846;23;20194;-71
2022/07/28 16:01:42;;;;;;;20.13;18.10;;;27.80;9.40;;;;;;6217663;23;20225;-72
2022/07/28 16:04:08;;;;;;;18.23;17.07;;;27.80;9.00;;;;;;6217731;23;20609;-71
2022/07/28 16:09:18;;;;;;;16.90;16.00;;;28.00;8.70;;;;;;6244724;23;20139;-71
2022/07/28 16:11:44;;;;;;;16.90;16.17;;;28.10;7.90;;;;;;6218380;23;20381;-72
2022/07/28 16:14:10;;;;;;;16.93;15.97;;;28.10;7.80;;;;;;6246995;23;20238;-71
2022/07/28 16:16:36;;;;;;;17.90;16.67;;;28.10;7.80;;;;;;6219889;23;20443;-71
2022/07/28 16:19:02;;;;;;;19.53;18.13;;;28.10;7.70;;;;;;6219886;23;20386;-71
2022/07/28 16:21:28;;;;;;;15.70;14.93;;;27.90;8.90;;;;;;6219528;23;20418;-71
2022/07/28 16:23:54;;;;;;;22.57;20.60;;;28.00;8.10;;;;;;6219819;23;20151;-72
2022/07/28 16:26:19;;;;;;;17.20;15.90;;;27.90;8.80;;;;;;6219861;23;20393;-72
2022/07/28 16:28:45;;;;;;;19.60;18.00;;;28.10;8.40;;;;;;6219840;23;20648;-71
2022/07/28 16:31:11;;;;;;;16.40;15.40;;;28.20;8.20;;;;;;6246305;23;20662;-72
2022/07/28 16:33:36;;;;;;;16.60;16.00;;;28.10;8.30;;;;;;6219040;23;20197;-71
2022/07/28 16:36:12;;;;;;;17.07;15.83;;;28.10;8.50;;;;;;6220671;23;20158;-71
2022/07/28 16:38:38;;;;;;;17.30;16.30;;;28.00;8.20;;;;;;6250443;23;20170;-72
2022/07/28 16:41:04;;;;;;;17.00;16.20;;;27.90;8.90;;;;;;6222065;23;20823;-72
2022/07/28 16:43:30;;;;;;;17.00;16.07;;;28.00;8.40;;;;;;6222505;23;20152;-72
2022/07/28 16:45:56;;;;;;;15.43;14.73;;;27.90;9.10;;;;;;6221424;23;20151;-74
2022/07/28 16:48:21;;;;;;;15.67;14.97;;;28.00;7.90;;;;;;6221778;23;20894;-72
2022/07/28 16:50:47;;;;;;;15.80;15.00;;;27.90;8.00;;;;;;6220926;23;20826;-71
2022/07/28 16:53:13;;;;;;;15.33;14.43;;;27.90;8.20;;;;;;6221455;23;20147;-73
2022/07/28 16:55:55;;;;;;;15.93;14.93;;;27.90;8.20;;;;;;6220440;23;20238;-73
2022/07/28 16:58:21;;;;;;;14.97;14.27;;;27.80;8.80;;;;;;6247973;23;20218;-72
2022/07/28 17:00:49;;;;;;;17.40;16.50;;;27.80;7.80;;;;;;6220736;23;20767;-72
2022/07/28 17:03:15;;;;;;;16.03;15.23;;;27.80;7.90;;;;;;6220013;23;20155;-71
2022/07/28 17:05:42;;;;;;;16.03;15.13;;;27.90;7.70;;;;;;6220088;23;20685;-72
2022/07/28 17:08:08;;;;;;;16.37;15.57;;;27.90;7.10;;;;;;6220102;23;20449;-71
2022/07/28 17:10:34;;;;;;;16.50;15.33;;;27.80;7.90;;;;;;6219734;23;20378;-72
2022/07/28 17:12:59;;;;;;;15.30;14.40;;;27.70;7.30;;;;;;6219872;23;20155;-71
2022/07/28 17:15:25;;;;;;;15.00;14.40;;;27.80;7.60;;;;;;6219389;23;20155;-72
2022/07/28 17:17:52;;;;;;;15.57;14.63;;;27.70;7.70;;;;;;6219952;23;20152;-71
2022/07/28 17:20:18;;;;;;;14.00;13.40;;;27.70;7.20;;;;;;6219703;23;20390;-71
2022/07/28 17:22:45;;;;;;;14.57;13.87;;;27.60;7.30;;;;;;6219651;23;20398;-71
2022/07/28 17:25:12;;;;;;;15.60;14.90;;;27.70;7.30;;;;;;6219584;23;20844;-72
2022/07/28 17:27:37;;;;;;;14.90;14.30;;;27.60;7.80;;;;;;6219366;23;20209;-72
2022/07/28 17:30:05;;;;;;;14.50;13.90;;;27.60;8.30;;;;;;6219581;23;20378;-71
2022/07/28 17:32:33;;;;;;;15.10;14.50;;;27.50;8.60;;;;;;6219735;23;20706;-71
2022/07/28 17:34:59;;;;;;;15.33;14.63;;;27.50;8.80;;;;;;6246767;23;20696;-70
2022/07/28 17:37:27;;;;;;;15.00;14.10;;;27.40;8.80;;;;;;6219829;23;20383;-71
2022/07/28 17:39:53;;;;;;;15.23;14.53;;;27.40;9.40;;;;;;6218713;23;20155;-71
2022/07/28 17:42:19;;;;;;;14.93;14.33;;;27.30;8.70;;;;;;6218083;23;20445;-71
2022/07/28 17:44:45;;;;;;;14.83;14.10;;;27.30;8.60;;;;;;6218539;23;20381;-68
2022/07/28 17:47:11;;;;;;;15.23;14.50;;;27.40;8.10;;;;;;6217563;23;20240;-67
2022/07/28 17:49:36;;;;;;;15.83;15.07;;;27.40;8.10;;;;;;6216931;23;20179;-68
2022/07/28 17:52:03;;;;;;;16.30;15.20;;;27.30;8.60;;;;;;6216601;23;20152;-67
2022/07/28 17:55:32;;;;;;;15.83;15.23;;;27.30;8.70;;;;;;6216778;23;20151;-68
2022/07/28 17:57:16;;;;;;;15.63;14.83;;;27.30;8.20;;;;;;6243423;23;20385;-68
2022/07/28 17:59:43;;;;;;;15.07;14.47;;;27.20;8.80;;;;;;6216416;23;20406;-68
2022/07/28 18:02:09;;;;;;;16.10;15.30;;;27.20;8.70;;;;;;6216643;23;20686;-68
2022/07/28 18:04:35;;;;;;;14.53;13.83;;;27.20;8.70;;;;;;6218665;23;20866;-68
2022/07/28 18:07:01;;;;;;;16.37;14.83;;;27.30;8.70;;;;;;6218726;23;20461;-68
2022/07/28 18:09:27;;;;;;;15.70;14.93;;;27.20;8.70;;;;;;6218820;23;20531;-68
2022/07/28 18:11:52;;;;;;;15.87;15.23;;;27.20;9.10;;;;;;6218611;23;20604;-67
2022/07/28 18:14:18;;;;;;;15.13;14.53;;;27.10;9.10;;;;;;6218876;23;20151;-68
2022/07/28 18:16:44;;;;;;;15.83;15.13;;;27.10;9.10;;;;;;6218839;23;20183;-67
2022/07/28 18:19:09;;;;;;;15.50;14.80;;;27.10;9.00;;;;;;6218724;23;20170;-68
2022/07/28 18:21:35;;;;;;;14.90;14.20;;;27.10;9.00;;;;;;6218966;23;20155;-68
2022/07/28 18:24:01;;;;;;;15.20;14.30;;;27.00;8.70;;;;;;6218701;23;20204;-68
2022/07/28 18:26:26;;;;;;;15.40;14.60;;;27.00;9.10;;;;;;6218593;23;20234;-67
2022/07/28 18:28:52;;;;;;;15.20;14.60;;;26.90;9.20;;;;;;6218658;23;20233;-68
2022/07/28 18:31:18;;;;;;;16.00;15.20;;;26.90;9.50;;;;;;6218365;23;20152;-68
2022/07/28 18:33:43;;;;;;;15.43;14.83;;;26.90;9.40;;;;;;6218442;23;20226;-68
2022/07/28 18:36:09;;;;;;;15.57;14.90;;;26.90;9.40;;;;;;6218583;23;20488;-68
2022/07/28 18:38:35;;;;;;;15.77;14.90;;;26.90;9.60;;;;;;6219004;23;20159;-68
2022/07/28 18:41:00;;;;;;;15.70;15.00;;;26.90;9.60;;;;;;6218292;23;20232;-68
2022/07/28 18:43:26;;;;;;;15.30;14.57;;;26.80;9.90;;;;;;6218766;23;20469;-68
2022/07/28 18:45:52;;;;;;;14.47;13.80;;;26.90;9.70;;;;;;6219110;23;20165;-68
2022/07/28 18:48:17;;;;;;;14.63;14.03;;;26.90;10.00;;;;;;6245368;23;20207;-68
2022/07/28 18:50:43;;;;;;;16.33;15.53;;;26.90;9.80;;;;;;6245106;23;20180;-68
2022/07/28 18:53:09;;;;;;;15.20;14.50;;;26.80;9.70;;;;;;6218350;23;20182;-68
2022/07/28 18:55:34;;;;;;;14.60;13.80;;;26.90;9.60;;;;;;6218386;23;20461;-68
2022/07/28 18:58:00;;;;;;;14.40;13.80;;;26.80;9.70;;;;;;6218350;23;20190;-68
2022/07/28 19:00:26;;;;;;;15.53;14.53;;;26.80;10.00;;;;;;6218101;23;20225;-68
2022/07/28 19:02:52;;;;;;;14.63;13.83;;;26.70;9.90;;;;;;6218269;23;20159;-67
2022/07/28 19:05:18;;;;;;;15.10;14.50;;;26.70;10.00;;;;;;6218380;23;20605;-67
2022/07/28 19:07:43;;;;;;;15.20;14.50;;;26.70;10.20;;;;;;6218215;23;20183;-68
2022/07/28 19:10:09;;;;;;;15.70;14.30;;;26.60;10.00;;;;;;6217983;23;20237;-68
2022/07/28 19:12:35;;;;;;;15.90;15.03;;;26.60;10.10;;;;;;6218195;23;20151;-68
2022/07/28 19:15:00;;;;;;;14.73;14.10;;;26.60;10.30;;;;;;6243849;23;20177;-68
2022/07/28 19:17:26;;;;;;;15.00;14.40;;;26.50;10.20;;;;;;6218170;23;20160;-68
2022/07/28 19:19:55;;;;;;;14.83;14.13;;;26.50;10.30;;;;;;6218029;23;20155;-67
2022/07/28 19:22:21;;;;;;;15.60;14.33;;;26.50;10.30;;;;;;6218618;23;20461;-68
2022/07/28 19:24:47;;;;;;;14.30;13.70;;;26.50;10.80;;;;;;6218161;23;20847;-68
2022/07/28 19:27:13;;;;;;;15.47;14.40;;;26.60;10.50;;;;;;6218271;23;20426;-68
2022/07/28 19:29:38;;;;;;;14.13;13.43;;;26.60;10.80;;;;;;6243486;23;20155;-68
2022/07/28 19:32:05;;;;;;;13.10;12.60;;;26.50;10.30;;;;;;6217728;23;20158;-68
2022/07/28 19:34:31;;;;;;;13.70;13.10;;;26.50;10.20;;;;;;6218159;23;20174;-68
2022/07/28 19:36:57;;;;;;;14.67;13.97;;;26.50;10.60;;;;;;6244820;23;20508;-67
2022/07/28 19:39:23;;;;;;;15.20;14.27;;;26.50;10.60;;;;;;6218120;23;20447;-67
2022/07/28 19:41:48;;;;;;;15.57;14.77;;;26.40;10.60;;;;;;6244565;23;20144;-68
2022/07/28 19:44:14;;;;;;;15.10;14.40;;;26.40;10.70;;;;;;6218074;23;20234;-68
2022/07/28 19:46:41;;;;;;;15.43;14.07;;;26.40;10.80;;;;;;6217839;23;20174;-67
2022/07/28 19:49:07;;;;;;;16.30;15.30;;;26.40;10.90;;;;;;6218542;23;20159;-68
2022/07/28 19:51:33;;;;;;;15.73;14.93;;;26.40;12.70;;;;;;6218384;23;20382;-71
2022/07/28 19:53:59;;;;;;;15.57;14.67;;;26.50;11.70;;;;;;6218382;23;20431;-71
2022/07/28 19:56:25;;;;;;;14.93;14.13;;;26.40;12.30;;;;;;6218460;23;20162;-71
2022/07/28 19:58:51;;;;;;;15.37;14.67;;;26.30;14.20;;;;;;6218249;23;20386;-71
2022/07/28 20:01:18;;;;;;;14.80;14.10;;;26.30;13.40;;;;;;6245551;23;20139;-71
2022/07/28 20:03:44;;;;;;;14.93;14.33;;;26.30;12.00;;;;;;6218592;23;20523;-71
2022/07/28 20:06:10;;;;;;;15.73;14.80;;;26.40;11.70;;;;;;6218217;23;20378;-70
2022/07/28 20:08:36;;;;;;;15.20;14.60;;;26.40;12.80;;;;;;6218476;23;20163;-71
2022/07/28 20:11:02;;;;;;;16.67;15.27;;;26.30;13.30;;;;;;6218034;23;20896;-71
2022/07/28 20:13:27;;;;;;;15.40;14.67;;;26.30;14.60;;;;;;6245403;23;20181;-71
2022/07/28 20:15:54;;;;;;;15.27;14.57;;;26.20;14.20;;;;;;6245272;23;20194;-71
2022/07/28 20:18:20;;;;;;;14.50;13.87;;;26.10;14.20;;;;;;6218474;23;20147;-70
2022/07/28 20:20:46;;;;;;;15.13;14.43;;;26.00;15.00;;;;;;6217928;23;20449;-70